Carlos Keen, Argentina
Current Conditions -  °F | °C
As of 2:00 AM on Sunday 21 Dec 2014 (Local Time) from SADF Reporting Station
Overcast Overcast  
Wind Chill: 66°   Ceiling: 1500
Heat Index: 66°   Visibility: 6mi
Dew Point: 59°   Wind: 14mph
Humidity: 78%   Direction: 160°SSE
Pressure: 29.68"   Gusts: 25mph
Location:  34.49°S, 59.23°W
Report Text: SADF 210500Z 16012G22KT 9999 OVC015 19/15 Q1005
Loading
Personal Weather Stations






























Interactive Weather Map New forecast layout! Learn more

10-Day Weather Forecast

Advertisements
Track Severe Weather on mobile